Fernando Do Noronha, Fernando de Noronha Airport (SBFN)

NameFernando de Noronha Airport
CityFernando Do Noronha
CountryBrazil
ICAOSBFN
IATAFEN
Altitude58 m
CoordinatesGoogle Map
Live Air TrafficLiveATC.net
METARSBFN 181700Z 35006KT 9999 SCT021 29/26 Q1011
2019-03-18 17:00:00 Wind: North-Northwest (350°) 3.09 m/s - Visibility: > 10000 m - Temperature: 29 °C - Dew point: 26 °C - Humidity: 83.9% - Pressure: 1011 hPa
Statistics

The table below shows the detailed information of all flights to/from Fernando Do Noronha, Fernando de Noronha Airport (SBFN).